KHYS

Details ICAO KHYS (HYS)
Name HAYS RGNL
Region United States
Timezone America/Chicago (UTC-5.0)
Plans Departing 13
Arriving 12
Stats Elevation 1,998 ft / 609 m (AMSL)
Location 38.841782° -99.273031°
Runways 2
Magnetic Variation 4.812° E
Sunrise 2018-05-26 11:18:07 UTC / 2018-05-26 06:18:07 Local
Sunset 2018-05-27 01:53:05 UTC / 2018-05-26 20:53:05 Local
Advertisement - Login to hide

Runways

ID Width Length Bearing (true) Bearing (mag) Surface Threshold Offset Overrun Length
04 75 ft / 23 m 4,498 ft / 1,371 m 48.03° 43.22° Concrete 0 ft / 0 m 0 ft / 0 m
16 100 ft / 30 m 6,511 ft / 1,985 m 167.44° 162.63° Asphalt 0 ft / 0 m 0 ft / 0 m
22 75 ft / 23 m 4,498 ft / 1,371 m 228.03° 223.22° Concrete 0 ft / 0 m 0 ft / 0 m
34 100 ft / 30 m 6,511 ft / 1,985 m 347.44° 342.63° Asphalt 0 ft / 0 m 0 ft / 0 m

Map

Weather


0- 5 10 15 20 25 30 35+ Temperature / ° C

Clouds and Precipitation
Forecast for 2018-05-26 06:00 UTC. Updated 2 hours ago

Ground ~20,000 ft ~40,000 ft Winds

METAR

KHYS 260656Z AUTO 20007KT 10SM CLR 20/18 A2985 RMK AO2 SLP091 T02000183

TAF

TAF KHYS 260520Z 2606/2706 19006KT P6SM SKC FM261800 15013KT P6SM SKC

Frequencies

Recorded 125.52 MHz AWOS 3
Unicom 122.80 MHz CTAF/UNICOM
Warning: Do not use this data for real-world aviation or navigation. No guarantee of current accuracy is given.